Time;durP1;ratioP1;P1;durP2;ratioP2;P2;SDS_P1;SDS_P2;PMS_P1;PMS_P2;Temp;Humidity;BMP_temperature;BMP_pressure;BME280_temperature;BME280_humidity;BME280_pressure;Samples;Min_cycle;Max_cycle;Signal;HPM_P1;HPM_P2
2023/03/28 00:00:55;;;;;;;9.20;1.90;;;2.30;99.90;;;;;;5049865;28;20418;-70
2023/03/28 00:03:22;;;;;;;14.13;1.75;;;2.20;99.90;;;;;;5050020;28;20485;-70
2023/03/28 00:05:49;;;;;;;11.52;2.72;;;2.10;99.90;;;;;;5049237;28;20087;-70
2023/03/28 00:08:17;;;;;;;6.57;2.15;;;2.10;99.90;;;;;;5048068;28;20056;-70
2023/03/28 00:10:43;;;;;;;10.70;1.80;;;2.00;99.90;;;;;;5050004;28;20052;-70
2023/03/28 00:13:12;;;;;;;8.27;1.73;;;1.90;99.90;;;;;;5048954;28;20068;-70
2023/03/28 00:15:40;;;;;;;8.80;1.48;;;1.80;99.90;;;;;;5048867;28;20048;-70
2023/03/28 00:18:07;;;;;;;6.30;1.50;;;1.70;99.90;;;;;;5048643;28;20044;-70
2023/03/28 00:20:37;;;;;;;7.70;1.95;;;1.60;99.90;;;;;;5049898;28;20036;-70
2023/03/28 00:23:03;;;;;;;11.15;2.13;;;1.50;99.90;;;;;;5049739;28;20160;-70
2023/03/28 00:25:33;;;;;;;9.05;2.67;;;1.50;99.90;;;;;;5048836;28;20561;-70
2023/03/28 00:27:59;;;;;;;11.98;2.50;;;1.40;99.90;;;;;;5049939;28;20041;-70
2023/03/28 00:30:25;;;;;;;8.32;2.00;;;1.40;99.90;;;;;;5048537;28;20075;-70
2023/03/28 00:32:51;;;;;;;10.15;1.77;;;1.30;99.90;;;;;;5048633;28;20379;-70
2023/03/28 00:35:17;;;;;;;8.45;1.50;;;1.30;99.90;;;;;;5048452;28;20045;-70
2023/03/28 00:37:44;;;;;;;6.05;1.92;;;1.40;99.90;;;;;;5049649;28;20029;-70
2023/03/28 00:40:12;;;;;;;7.57;2.08;;;1.30;99.90;;;;;;5048509;28;20045;-70
2023/03/28 00:42:41;;;;;;;7.57;1.83;;;1.30;99.90;;;;;;5049390;28;20048;-70
2023/03/28 00:45:10;;;;;;;11.48;2.05;;;1.40;99.90;;;;;;5049733;28;20045;-70
2023/03/28 00:47:50;;;;;;;9.75;2.03;;;1.40;99.90;;;;;;5048430;28;20041;-70
2023/03/28 00:50:29;;;;;;;6.13;1.55;;;1.30;99.90;;;;;;5048152;28;20489;-70
2023/03/28 00:53:01;;;;;;;5.80;1.60;;;1.30;99.90;;;;;;5049742;28;20045;-70
2023/03/28 00:55:37;;;;;;;12.45;2.35;;;1.30;99.90;;;;;;5048733;28;20044;-70
2023/03/28 00:58:08;;;;;;;7.55;1.35;;;1.30;99.90;;;;;;5048437;28;20453;-70
2023/03/28 01:00:35;;;;;;;9.15;2.00;;;1.30;99.90;;;;;;5049789;28;20048;-70
2023/03/28 01:03:02;;;;;;;6.72;1.58;;;1.20;99.90;;;;;;5048418;28;20037;-70
2023/03/28 01:05:32;;;;;;;12.32;2.40;;;1.20;99.90;;;;;;5049531;28;20049;-70
2023/03/28 01:08:10;;;;;;;9.23;2.95;;;1.10;99.90;;;;;;5048226;28;20128;-70
2023/03/28 01:10:36;;;;;;;6.53;2.72;;;1.10;99.90;;;;;;5047839;28;20041;-70
2023/03/28 01:13:03;;;;;;;9.80;2.45;;;1.10;99.90;;;;;;5048111;28;20044;-70
2023/03/28 01:15:29;;;;;;;10.65;3.17;;;1.00;99.90;;;;;;5049288;28;20095;-70
2023/03/28 01:17:56;;;;;;;8.43;2.05;;;1.00;99.90;;;;;;5047507;28;20132;-70
2023/03/28 01:20:36;;;;;;;12.15;2.55;;;1.00;99.90;;;;;;5049192;28;20097;-70
2023/03/28 01:23:20;;;;;;;;;;;1.00;99.90;;;;;;5053429;28;20433;-70
2023/03/28 01:26:13;;;;;;;8.52;1.75;;;1.00;99.90;;;;;;5052842;28;19917;-70
2023/03/28 01:29:16;;;;;;;8.05;1.90;;;1.00;99.90;;;;;;5051499;28;20106;-70
2023/03/28 01:31:52;;;;;;;17.45;2.28;;;1.00;99.90;;;;;;5051440;28;20393;-70
2023/03/28 01:34:29;;;;;;;11.52;2.38;;;1.00;99.90;;;;;;5053045;28;20076;-70
2023/03/28 01:37:33;;;;;;;15.93;2.63;;;1.00;99.90;;;;;;5051449;28;20045;-70
2023/03/28 01:40:26;;;;;;;11.15;2.50;;;1.00;99.90;;;;;;5027329;28;20071;-70
2023/03/28 01:42:58;;;;;;;12.55;2.90;;;1.00;99.90;;;;;;5034812;28;20042;-70
2023/03/28 01:45:44;;;;;;;12.18;2.63;;;1.10;99.90;;;;;;5051554;28;20048;-70
2023/03/28 01:48:22;;;;;;;13.40;3.33;;;1.10;99.90;;;;;;5052398;28;20091;-70
2023/03/28 01:51:01;;;;;;;10.55;2.50;;;1.10;99.90;;;;;;5051323;28;20072;-70
2023/03/28 01:53:44;;;;;;;11.40;2.60;;;1.20;99.90;;;;;;5052195;28;20378;-70
2023/03/28 01:56:23;;;;;;;9.68;3.33;;;1.10;99.90;;;;;;5051089;28;20045;-70
2023/03/28 01:59:15;;;;;;;11.23;2.03;;;1.10;99.90;;;;;;5050937;28;20044;-70
2023/03/28 02:01:54;;;;;;;10.02;2.00;;;1.10;99.90;;;;;;5045005;28;20124;-70
2023/03/28 02:04:24;;;;;;;7.57;1.63;;;1.00;99.90;;;;;;5052254;28;20056;-70
2023/03/28 02:06:52;;;;;;;6.18;1.55;;;0.90;99.90;;;;;;5052071;28;20077;-70
2023/03/28 02:09:23;;;;;;;9.52;2.00;;;0.90;99.90;;;;;;5050745;28;20041;-70
2023/03/28 02:11:55;;;;;;;13.82;2.00;;;0.80;99.90;;;;;;5052003;28;20562;-70
2023/03/28 02:14:25;;;;;;;6.95;1.45;;;0.80;99.90;;;;;;5051843;28;20033;-70
2023/03/28 02:16:59;;;;;;;11.15;2.08;;;0.70;99.90;;;;;;5052043;28;20116;-70
2023/03/28 02:19:27;;;;;;;6.93;1.30;;;0.70;99.90;;;;;;5051922;28;20053;-70
2023/03/28 02:22:01;;;;;;;6.95;1.55;;;0.60;99.90;;;;;;5051794;28;20044;-70
2023/03/28 02:24:27;;;;;;;11.40;2.17;;;0.60;99.90;;;;;;5052073;28;20053;-70
2023/03/28 02:26:53;;;;;;;8.55;1.60;;;0.50;99.90;;;;;;5050448;28;20520;-70
2023/03/28 02:29:20;;;;;;;16.05;2.10;;;0.40;99.90;;;;;;5051280;28;20044;-70
2023/03/28 02:31:46;;;;;;;9.15;1.33;;;0.40;99.90;;;;;;5051508;28;20041;-70
2023/03/28 02:34:12;;;;;;;7.28;1.77;;;0.40;99.90;;;;;;5051500;28;20048;-70
2023/03/28 02:37:04;;;;;;;6.72;1.65;;;0.40;99.90;;;;;;5051432;28;20037;-70
2023/03/28 02:39:35;;;;;;;12.18;1.77;;;0.30;99.90;;;;;;5050436;28;20460;-70
2023/03/28 02:42:26;;;;;;;6.25;1.90;;;0.20;99.90;;;;;;5049846;28;20076;-70
2023/03/28 02:45:25;;;;;;;9.20;2.05;;;0.20;99.90;;;;;;5051550;28;20067;-70
2023/03/28 02:48:06;;;;;;;7.97;1.83;;;0.20;99.90;;;;;;5049912;28;20489;-70
2023/03/28 02:50:53;;;;;;;13.05;1.73;;;0.20;99.90;;;;;;5049948;28;20436;-70
2023/03/28 02:53:31;;;;;;;11.85;1.90;;;0.20;99.90;;;;;;5051564;28;20072;-70
2023/03/28 02:56:13;;;;;;;8.55;1.90;;;0.20;99.90;;;;;;5050829;28;20048;-70
2023/03/28 02:58:58;;;;;;;14.10;3.13;;;0.20;99.90;;;;;;5051040;28;20044;-70
2023/03/28 03:01:28;;;;;;;11.30;1.77;;;0.10;99.90;;;;;;5050107;28;20414;-70
2023/03/28 03:03:54;;;;;;;10.27;1.48;;;0.10;99.90;;;;;;5049200;28;20041;-70
2023/03/28 03:06:20;;;;;;;10.73;2.60;;;0.00;99.90;;;;;;5049919;28;20415;-70
2023/03/28 03:08:46;;;;;;;10.23;1.88;;;0.00;99.90;;;;;;5049481;28;20128;-69
2023/03/28 03:11:12;;;;;;;11.23;2.35;;;0.00;99.90;;;;;;5049079;28;20116;-69
2023/03/28 03:13:37;;;;;;;8.48;1.77;;;0.00;99.90;;;;;;5049303;28;20041;-70
2023/03/28 03:16:04;;;;;;;10.45;1.80;;;0.00;99.90;;;;;;5050833;28;20044;-70
2023/03/28 03:18:31;;;;;;;11.95;2.35;;;0.10;99.90;;;;;;5050254;28;20037;-69
2023/03/28 03:21:00;;;;;;;12.02;2.42;;;0.20;99.90;;;;;;5050734;28;20142;-69
2023/03/28 03:23:26;;;;;;;13.43;2.22;;;0.30;99.90;;;;;;5050498;28;20053;-69
2023/03/28 03:25:52;;;;;;;11.05;2.38;;;0.40;99.90;;;;;;5049064;28;20041;-69
2023/03/28 03:28:19;;;;;;;8.00;1.95;;;0.40;99.90;;;;;;5049081;28;20545;-69
2023/03/28 03:30:45;;;;;;;10.23;2.22;;;0.50;99.90;;;;;;5048741;28;20052;-70
2023/03/28 03:33:13;;;;;;;9.75;2.00;;;0.60;99.90;;;;;;5032555;28;20120;-69
2023/03/28 03:35:40;;;;;;;9.80;2.30;;;0.70;99.90;;;;;;5032479;28;20037;-70
2023/03/28 03:38:07;;;;;;;7.88;1.60;;;0.80;99.90;;;;;;5049026;28;20059;-70
2023/03/28 03:40:33;;;;;;;9.05;2.35;;;0.90;99.90;;;;;;5049284;28;20037;-70
2023/03/28 03:42:59;;;;;;;11.40;2.33;;;1.00;99.90;;;;;;5048327;28;20524;-70
2023/03/28 03:45:25;;;;;;;9.00;1.83;;;1.10;99.90;;;;;;5048796;28;20044;-70
2023/03/28 03:47:50;;;;;;;15.77;2.53;;;1.20;99.90;;;;;;5032393;28;20094;-70
2023/03/28 03:50:16;;;;;;;14.90;2.90;;;1.30;99.90;;;;;;5049041;28;20041;-70
2023/03/28 03:52:42;;;;;;;12.93;2.22;;;1.30;99.90;;;;;;5048796;28;20037;-70
2023/03/28 03:55:08;;;;;;;8.23;1.80;;;1.40;99.90;;;;;;5050216;28;20372;-70
2023/03/28 03:57:34;;;;;;;13.40;2.83;;;1.40;99.90;;;;;;5048705;28;20052;-70
2023/03/28 04:00:04;;;;;;;10.90;2.20;;;1.40;99.90;;;;;;5049727;28;20045;-69
2023/03/28 04:02:30;;;;;;;10.82;2.08;;;1.40;99.90;;;;;;5050194;28;20045;-69
2023/03/28 04:04:56;;;;;;;9.10;1.83;;;1.50;99.90;;;;;;5049855;28;20178;-69
2023/03/28 04:07:21;;;;;;;12.30;1.98;;;1.50;99.90;;;;;;5049504;28;20037;-69
2023/03/28 04:09:47;;;;;;;5.95;1.52;;;1.50;99.90;;;;;;5048518;28;20057;-69
2023/03/28 04:12:13;;;;;;;10.85;1.60;;;1.50;99.90;;;;;;5050058;28;20033;-69
2023/03/28 04:14:39;;;;;;;11.07;1.77;;;1.50;99.90;;;;;;5049712;28;20072;-69
2023/03/28 04:17:05;;;;;;;8.98;2.10;;;1.50;99.90;;;;;;5050073;28;20072;-69
2023/03/28 04:19:31;;;;;;;9.10;1.75;;;1.40;99.90;;;;;;5049893;28;20048;-69
2023/03/28 04:21:58;;;;;;;10.43;2.08;;;1.40;99.90;;;;;;5048062;28;20436;-69
2023/03/28 04:24:23;;;;;;;11.45;1.80;;;1.40;99.90;;;;;;5049430;28;20423;-69
2023/03/28 04:26:54;;;;;;;8.40;1.60;;;1.30;99.90;;;;;;5047968;28;20124;-69
2023/03/28 04:29:30;;;;;;;9.75;2.15;;;1.30;99.90;;;;;;5048460;28;20041;-69
2023/03/28 04:31:57;;;;;;;6.03;2.03;;;1.30;99.90;;;;;;5048523;28;20469;-69
2023/03/28 04:34:28;;;;;;;11.48;2.83;;;1.30;99.90;;;;;;5031610;28;20041;-69
2023/03/28 04:37:00;;;;;;;14.25;2.78;;;1.20;99.90;;;;;;5031705;28;20045;-69
2023/03/28 04:39:27;;;;;;;13.30;2.53;;;1.20;99.90;;;;;;5048199;28;20098;-69
2023/03/28 04:41:54;;;;;;;12.07;2.47;;;1.20;99.90;;;;;;5048208;28;20440;-70
2023/03/28 04:44:21;;;;;;;10.07;1.95;;;1.20;99.90;;;;;;5048526;28;20409;-70
2023/03/28 04:46:50;;;;;;;9.27;2.78;;;1.10;99.90;;;;;;5048207;28;20046;-69
2023/03/28 04:49:16;;;;;;;11.23;2.30;;;1.20;99.90;;;;;;5049144;28;20072;-69
2023/03/28 04:51:42;;;;;;;9.57;3.42;;;1.10;99.90;;;;;;5031520;28;20081;-70
2023/03/28 04:54:08;;;;;;;15.30;5.70;;;1.10;99.90;;;;;;5049396;28;20076;-70
2023/03/28 04:56:35;;;;;;;8.27;3.67;;;1.10;99.90;;;;;;5052118;28;20045;-70
2023/03/28 04:59:01;;;;;;;18.83;4.55;;;1.10;99.90;;;;;;5035494;28;20120;-69
2023/03/28 05:01:26;;;;;;;12.93;4.60;;;1.00;99.90;;;;;;5052295;28;20053;-69
2023/03/28 05:03:53;;;;;;;9.68;4.43;;;1.00;99.90;;;;;;5052896;28;20074;-69
2023/03/28 05:06:20;;;;;;;14.00;3.83;;;1.00;99.90;;;;;;5053121;28;20064;-69
2023/03/28 05:08:46;;;;;;;10.15;4.07;;;0.90;99.90;;;;;;5053010;28;20045;-69
2023/03/28 05:11:12;;;;;;;12.90;3.90;;;0.90;99.90;;;;;;5052206;28;20040;-69
2023/03/28 05:13:37;;;;;;;17.63;5.32;;;0.80;99.90;;;;;;5052090;28;20040;-69
2023/03/28 05:16:04;;;;;;;8.95;3.15;;;0.80;99.90;;;;;;5051813;28;20438;-70
2023/03/28 05:18:29;;;;;;;16.88;4.70;;;0.80;99.90;;;;;;5051739;28;20127;-70
2023/03/28 05:20:55;;;;;;;14.15;3.47;;;0.80;99.90;;;;;;5051705;28;20123;-70
2023/03/28 05:23:21;;;;;;;15.82;3.17;;;0.80;99.90;;;;;;5052482;28;20061;-70
2023/03/28 05:25:50;;;;;;;15.43;4.30;;;0.80;99.90;;;;;;5035046;28;20040;-69
2023/03/28 05:28:16;;;;;;;12.25;4.05;;;0.90;99.90;;;;;;5051374;28;20041;-69
2023/03/28 05:30:42;;;;;;;15.52;4.18;;;0.90;99.90;;;;;;5052565;28;20106;-69
2023/03/28 05:33:08;;;;;;;14.75;3.53;;;1.00;99.90;;;;;;5052726;28;20052;-70
2023/03/28 05:35:34;;;;;;;10.45;3.33;;;1.00;99.90;;;;;;5052824;28;20110;-70
2023/03/28 05:38:01;;;;;;;9.77;2.58;;;1.10;99.90;;;;;;5053446;28;20481;-70
2023/03/28 05:40:27;;;;;;;11.32;3.13;;;1.20;99.90;;;;;;5053782;28;20041;-70
2023/03/28 05:42:52;;;;;;;8.20;3.00;;;1.30;99.90;;;;;;5053856;28;20558;-70
2023/03/28 05:45:18;;;;;;;13.70;2.88;;;1.30;99.90;;;;;;5053230;28;20184;-70
2023/03/28 05:47:44;;;;;;;10.95;2.60;;;1.40;99.90;;;;;;5052095;28;20513;-70
2023/03/28 05:50:10;;;;;;;7.22;1.88;;;1.40;99.90;;;;;;5052232;28;20033;-70
2023/03/28 05:52:36;;;;;;;10.40;2.60;;;1.50;99.90;;;;;;5051934;28;20126;-70
2023/03/28 05:55:02;;;;;;;8.95;2.67;;;1.60;99.90;;;;;;5053666;28;20052;-70
2023/03/28 05:57:27;;;;;;;6.95;1.95;;;1.60;99.90;;;;;;5051458;28;20201;-70
2023/03/28 05:59:53;;;;;;;11.05;2.97;;;1.70;99.90;;;;;;5051864;28;20037;-70
2023/03/28 06:02:21;;;;;;;7.38;2.83;;;1.80;99.90;;;;;;5052250;28;20458;-70
2023/03/28 06:04:47;;;;;;;11.05;3.30;;;1.80;99.90;;;;;;5051776;28;20440;-70
2023/03/28 06:07:13;;;;;;;13.10;4.35;;;1.90;99.90;;;;;;5050448;28;20405;-69
2023/03/28 06:09:41;;;;;;;13.43;3.25;;;2.00;99.90;;;;;;5050805;28;20083;-69
2023/03/28 06:12:06;;;;;;;14.98;3.92;;;2.00;99.90;;;;;;5051668;28;20505;-70
2023/03/28 06:14:32;;;;;;;11.90;4.28;;;2.10;99.90;;;;;;5051010;28;20068;-70
2023/03/28 06:16:58;;;;;;;14.77;5.57;;;2.20;99.90;;;;;;5050874;28;20044;-70
2023/03/28 06:19:25;;;;;;;11.27;5.78;;;2.30;99.90;;;;;;5050318;28;20463;-69
2023/03/28 06:21:50;;;;;;;10.95;5.43;;;2.40;99.90;;;;;;5052310;28;20427;-69
2023/03/28 06:24:16;;;;;;;14.55;5.72;;;2.40;99.90;;;;;;5051856;28;20132;-69
2023/03/28 06:26:42;;;;;;;10.35;4.45;;;2.60;99.90;;;;;;5050270;28;20048;-69
2023/03/28 06:29:08;;;;;;;11.90;4.38;;;2.60;99.90;;;;;;5051922;28;20041;-68
2023/03/28 06:31:34;;;;;;;14.57;4.13;;;2.70;99.90;;;;;;5050575;28;20094;-68
2023/03/28 06:33:59;;;;;;;15.40;3.60;;;2.80;99.90;;;;;;5051606;28;20094;-68
2023/03/28 06:36:25;;;;;;;11.55;3.15;;;2.90;99.90;;;;;;5052125;28;20124;-68
2023/03/28 06:38:52;;;;;;;11.25;2.92;;;3.00;99.90;;;;;;5050662;28;20040;-68
2023/03/28 06:41:18;;;;;;;10.45;3.45;;;3.10;99.90;;;;;;5051685;28;20044;-69
2023/03/28 06:43:45;;;;;;;14.05;4.25;;;3.20;99.90;;;;;;5051954;28;20512;-69
2023/03/28 06:46:12;;;;;;;9.23;3.03;;;3.20;99.90;;;;;;5050835;28;20489;-69
2023/03/28 06:48:38;;;;;;;8.43;2.55;;;3.20;99.90;;;;;;5050685;28;20048;-69
2023/03/28 06:51:04;;;;;;;7.47;1.70;;;3.20;99.90;;;;;;5051649;28;20072;-69
2023/03/28 06:53:30;;;;;;;13.02;3.80;;;3.10;99.90;;;;;;5051964;28;20044;-69
2023/03/28 06:55:58;;;;;;;9.02;2.20;;;3.10;99.90;;;;;;5051154;28;20508;-69
2023/03/28 06:58:24;;;;;;;5.22;1.63;;;3.10;99.90;;;;;;5051889;28;20084;-69
2023/03/28 07:00:54;;;;;;;7.22;1.55;;;3.40;99.90;;;;;;5052411;28;20551;-69
2023/03/28 07:03:20;;;;;;;10.23;1.80;;;3.80;99.90;;;;;;5052909;28;20047;-69
2023/03/28 07:05:46;;;;;;;10.27;2.70;;;4.20;99.90;;;;;;5052405;28;20041;-68
2023/03/28 07:08:13;;;;;;;6.15;2.40;;;4.40;99.90;;;;;;5050727;28;20056;-68
2023/03/28 07:10:40;;;;;;;7.70;3.20;;;4.50;99.90;;;;;;5051200;28;20076;-68
2023/03/28 07:13:06;;;;;;;12.80;3.38;;;4.60;99.90;;;;;;5052356;28;20036;-68
2023/03/28 07:15:32;;;;;;;10.57;3.22;;;4.70;99.90;;;;;;5052056;28;20452;-68
2023/03/28 07:17:58;;;;;;;8.48;3.85;;;4.70;99.90;;;;;;5051439;28;20044;-68
2023/03/28 07:20:24;;;;;;;12.38;3.40;;;4.80;99.90;;;;;;5051501;28;20106;-69
2023/03/28 07:22:50;;;;;;;9.68;3.50;;;4.80;99.90;;;;;;5050714;28;20607;-69
2023/03/28 07:25:16;;;;;;;9.25;3.90;;;4.80;99.90;;;;;;5051121;28;20041;-69
2023/03/28 07:27:42;;;;;;;16.30;4.80;;;4.90;99.90;;;;;;5050587;28;20056;-68
2023/03/28 07:30:09;;;;;;;15.05;5.63;;;5.10;99.90;;;;;;5050251;28;20048;-68
2023/03/28 07:32:35;;;;;;;10.93;5.07;;;5.20;99.90;;;;;;5050670;28;20049;-68
2023/03/28 07:35:05;;;;;;;14.38;5.95;;;5.40;99.90;;;;;;5050446;28;20048;-68
2023/03/28 07:37:33;;;;;;;16.83;5.22;;;5.60;99.90;;;;;;5051741;28;20037;-68
2023/03/28 07:39:59;;;;;;;10.98;3.35;;;6.00;99.90;;;;;;5051623;28;20053;-68
2023/03/28 07:42:27;;;;;;;13.45;3.67;;;6.20;99.90;;;;;;5047240;28;20052;-68
2023/03/28 07:44:53;;;;;;;6.35;2.70;;;6.40;99.90;;;;;;5049286;28;20036;-68
2023/03/28 07:47:20;;;;;;;9.57;2.92;;;6.60;99.90;;;;;;5033347;28;20049;-69
2023/03/28 07:49:46;;;;;;;7.55;2.85;;;6.80;99.90;;;;;;5051192;28;20060;-69
2023/03/28 07:52:12;;;;;;;9.30;2.60;;;6.90;99.90;;;;;;5049835;28;20091;-68
2023/03/28 07:54:41;;;;;;;9.40;2.35;;;7.00;99.90;;;;;;5049433;28;20036;-68
2023/03/28 07:57:07;;;;;;;8.68;2.17;;;7.10;99.90;;;;;;5049945;28;20448;-69
2023/03/28 07:59:33;;;;;;;11.88;2.65;;;7.10;99.90;;;;;;5051328;28;20045;-69
2023/03/28 08:01:58;;;;;;;6.75;1.63;;;7.10;99.90;;;;;;5047837;28;20040;-69
2023/03/28 08:04:24;;;;;;;6.70;2.25;;;7.20;99.90;;;;;;5049729;28;20192;-71
2023/03/28 08:06:51;;;;;;;7.80;2.35;;;7.10;99.90;;;;;;5051412;28;20043;-69
2023/03/28 08:09:18;;;;;;;11.48;3.20;;;7.10;99.90;;;;;;5050225;28;20040;-69
2023/03/28 08:11:44;;;;;;;7.63;2.70;;;7.10;99.90;;;;;;5050629;28;20380;-69
2023/03/28 08:14:15;;;;;;;7.88;2.58;;;7.30;99.90;;;;;;5050195;28;20421;-69
2023/03/28 08:16:42;;;;;;;6.45;2.38;;;7.40;99.90;;;;;;5049952;28;20102;-69
2023/03/28 08:19:08;;;;;;;11.10;3.80;;;7.60;99.90;;;;;;5050875;28;20049;-69
2023/03/28 08:21:34;;;;;;;4.20;1.50;;;8.10;99.90;;;;;;5050318;28;20041;-69
2023/03/28 08:24:04;;;;;;;7.32;1.67;;;8.50;99.90;;;;;;5051228;28;20080;-69
2023/03/28 08:26:30;;;;;;;4.80;1.70;;;9.10;99.90;;;;;;5050595;28;20087;-70
2023/03/28 08:28:59;;;;;;;5.63;1.38;;;9.50;99.90;;;;;;5050530;28;20079;-69
2023/03/28 08:31:27;;;;;;;7.28;1.45;;;9.80;99.90;;;;;;5056555;28;20099;-70
2023/03/28 08:33:54;;;;;;;5.35;1.35;;;10.20;99.90;;;;;;5057507;28;20513;-69
2023/03/28 08:36:22;;;;;;;4.03;1.20;;;10.70;99.90;;;;;;5057051;28;20033;-69
2023/03/28 08:38:49;;;;;;;6.22;1.45;;;11.00;99.90;;;;;;5055009;28;20067;-69
2023/03/28 08:41:28;;;;;;;7.13;2.50;;;11.30;99.90;;;;;;5056389;28;20124;-70
2023/03/28 08:44:03;;;;;;;5.35;1.45;;;11.60;99.90;;;;;;5056798;28;20051;-70
2023/03/28 08:46:30;;;;;;;5.50;1.38;;;12.00;99.90;;;;;;5056475;28;20409;-70
2023/03/28 08:49:02;;;;;;;3.90;1.15;;;12.30;99.90;;;;;;5055729;28;20040;-70
2023/03/28 08:51:39;;;;;;;4.70;1.05;;;12.60;99.90;;;;;;5057162;28;20068;-70
2023/03/28 08:54:27;;;;;;;4.38;1.80;;;12.80;99.90;;;;;;5056174;28;20527;-70
2023/03/28 08:56:59;;;;;;;8.38;1.77;;;12.60;99.90;;;;;;5038750;28;20385;-69
2023/03/28 08:59:36;;;;;;;6.60;1.50;;;12.50;99.90;;;;;;5056433;28;20096;-69
2023/03/28 09:02:07;;;;;;;6.32;1.25;;;12.50;99.90;;;;;;5056004;28;20041;-70
2023/03/28 09:04:34;;;;;;;4.88;1.10;;;12.20;99.90;;;;;;5054830;28;20048;-69
2023/03/28 09:07:28;;;;;;;4.32;1.00;;;11.90;99.90;;;;;;5056026;28;20498;-70
2023/03/28 09:10:24;;;;;;;6.10;2.78;;;11.90;99.90;;;;;;5055449;28;20053;-70
2023/03/28 09:13:19;;;;;;;4.57;1.48;;;11.90;99.90;;;;;;5055573;28;20505;-70
2023/03/28 09:15:54;;;;;;;3.47;0.85;;;12.00;99.90;;;;;;5054186;28;20052;-71
2023/03/28 09:18:30;;;;;;;7.78;1.20;;;12.10;99.90;;;;;;5054992;28;20044;-68
2023/03/28 09:21:08;;;;;;;3.47;1.10;;;12.30;99.90;;;;;;5054253;28;20045;-69
2023/03/28 09:24:02;;;;;;;4.47;1.20;;;12.20;99.90;;;;;;5055625;28;20053;-69
2023/03/28 09:26:35;;;;;;;7.50;1.40;;;11.60;99.90;;;;;;5054539;28;20492;-67
2023/03/28 09:29:09;;;;;;;6.43;1.27;;;11.10;99.90;;;;;;5054139;28;20051;-68
2023/03/28 09:31:46;;;;;;;5.57;1.30;;;11.20;99.90;;;;;;5038327;28;20044;-69
2023/03/28 09:34:26;;;;;;;6.45;1.75;;;11.20;99.90;;;;;;5055478;28;20063;-68
2023/03/28 09:37:00;;;;;;;5.53;1.70;;;11.40;99.90;;;;;;5054553;28;20048;-69
2023/03/28 09:39:47;;;;;;;5.95;1.65;;;11.50;99.90;;;;;;5054949;28;20041;-72
2023/03/28 09:42:39;;;;;;;;;;;11.70;99.90;;;;;;5051857;28;20421;-71
2023/03/28 09:45:29;;;;;;;5.13;1.33;;;11.70;99.90;;;;;;5051128;28;20309;-69
2023/03/28 09:47:56;;;;;;;9.18;1.63;;;11.30;99.90;;;;;;5051009;28;20056;-70
2023/03/28 09:50:22;;;;;;;2.53;1.15;;;11.10;99.90;;;;;;5050398;28;20524;-68
2023/03/28 09:52:51;;;;;;;4.68;1.40;;;10.80;99.90;;;;;;5051493;28;20041;-68
2023/03/28 09:55:29;;;;;;;7.32;1.80;;;10.60;99.90;;;;;;5052133;28;20105;-68
2023/03/28 09:58:07;;;;;;;4.95;2.15;;;10.50;99.90;;;;;;5051526;28;20076;-67
2023/03/28 10:00:41;;;;;;;5.50;1.95;;;10.10;99.90;;;;;;5049708;28;20132;-68
2023/03/28 10:03:28;;;;;;;4.95;2.13;;;9.80;99.90;;;;;;5039796;28;20043;-68
2023/03/28 10:05:55;;;;;;;7.85;1.80;;;9.50;99.90;;;;;;5052112;28;20044;-68
2023/03/28 10:08:31;;;;;;;6.88;1.85;;;9.60;99.90;;;;;;5050469;28;20124;-68
2023/03/28 10:11:21;;;;;;;4.70;1.48;;;9.60;99.90;;;;;;5049624;28;20032;-68
2023/03/28 10:13:50;;;;;;;6.55;1.45;;;9.50;99.90;;;;;;5050500;28;20044;-68
2023/03/28 10:16:27;;;;;;;8.32;2.05;;;9.70;99.90;;;;;;5051801;28;20037;-68
2023/03/28 10:18:53;;;;;;;8.45;1.95;;;10.00;99.90;;;;;;5050932;28;20056;-68
2023/03/28 10:21:25;;;;;;;7.43;1.75;;;10.40;99.90;;;;;;5051774;28;20052;-68
2023/03/28 10:24:20;;;;;;;5.95;1.80;;;10.90;99.90;;;;;;5049655;28;20063;-68
2023/03/28 10:26:47;;;;;;;7.35;2.08;;;11.40;99.90;;;;;;5037525;28;20059;-69
2023/03/28 10:29:14;;;;;;;6.15;1.67;;;11.30;99.90;;;;;;5050481;28;20124;-68
2023/03/28 10:31:48;;;;;;;8.30;2.35;;;11.10;99.90;;;;;;5051008;28;20044;-68
2023/03/28 10:34:29;;;;;;;5.68;2.33;;;11.00;99.90;;;;;;5051249;28;20047;-67
2023/03/28 10:36:55;;;;;;;6.82;2.38;;;10.90;99.90;;;;;;5051358;28;20096;-68
2023/03/28 10:39:32;;;;;;;4.25;2.20;;;10.90;99.90;;;;;;5032803;28;20527;-68
2023/03/28 10:41:59;;;;;;;8.73;1.98;;;10.50;99.90;;;;;;5050099;28;20127;-67
2023/03/28 10:44:39;;;;;;;7.40;2.17;;;10.00;99.90;;;;;;5049798;28;20048;-67
2023/03/28 10:47:12;;;;;;;5.68;2.10;;;9.60;99.90;;;;;;5051007;28;21928;-67
2023/03/28 10:49:51;;;;;;;6.47;2.40;;;9.40;99.90;;;;;;5049715;28;20052;-67
2023/03/28 10:52:36;;;;;;;6.60;2.03;;;9.20;99.90;;;;;;5048797;28;20037;-67
2023/03/28 10:55:25;;;;;;;7.10;2.55;;;9.20;99.90;;;;;;5050722;28;20036;-67
2023/03/28 10:57:56;;;;;;;6.75;3.22;;;9.20;99.90;;;;;;5050925;28;20051;-68
2023/03/28 11:00:41;;;;;;;8.80;2.95;;;9.90;99.90;;;;;;5050173;28;20136;-67
2023/03/28 11:03:15;;;;;;;9.52;3.17;;;10.40;99.90;;;;;;5050772;28;20083;-68
2023/03/28 11:06:11;;;;;;;5.28;2.88;;;10.60;99.90;;;;;;5048792;28;20513;-68
2023/03/28 11:08:39;;;;;;;6.75;3.30;;;10.80;99.90;;;;;;5050452;28;20064;-68
2023/03/28 11:11:48;;;;;;;5.47;2.60;;;10.90;99.90;;;;;;5049185;28;20500;-68
2023/03/28 11:14:29;;;;;;;6.38;2.55;;;11.00;99.90;;;;;;5048841;28;20048;-69
2023/03/28 11:17:02;;;;;;;7.38;2.75;;;10.90;99.90;;;;;;5049431;28;20083;-68
2023/03/28 11:19:55;;;;;;;4.28;2.33;;;10.70;99.90;;;;;;5049214;28;20296;-68
2023/03/28 11:22:49;;;;;;;7.38;1.98;;;10.60;99.90;;;;;;5049347;28;20440;-68
2023/03/28 11:25:46;;;;;;;6.70;2.67;;;10.10;99.90;;;;;;5049015;28;20084;-67
2023/03/28 11:28:15;;;;;;;7.78;2.90;;;10.00;99.90;;;;;;5030986;28;20052;-68
2023/03/28 11:30:45;;;;;;;5.70;2.17;;;10.30;99.90;;;;;;5032265;28;20059;-68
2023/03/28 11:33:35;;;;;;;6.03;2.95;;;10.70;99.90;;;;;;5048919;28;20041;-69
2023/03/28 11:36:07;;;;;;;4.28;2.47;;;11.20;99.90;;;;;;5049260;28;20039;-68
2023/03/28 11:38:39;;;;;;;5.50;2.13;;;11.40;99.00;;;;;;5048762;28;20128;-68
2023/03/28 11:41:14;;;;;;;5.40;2.38;;;11.40;98.80;;;;;;5031834;28;20086;-74
2023/03/28 11:43:57;;;;;;;5.90;2.85;;;11.30;98.80;;;;;;5050127;28;20493;-68
2023/03/28 11:46:26;;;;;;;4.18;2.58;;;11.10;99.20;;;;;;5046359;28;20053;-69
2023/03/28 11:49:20;;;;;;;9.25;2.92;;;10.80;99.30;;;;;;5043887;28;20117;-68
2023/03/28 11:51:52;;;;;;;8.70;3.25;;;10.50;99.80;;;;;;5046966;28;20528;-68
2023/03/28 11:54:26;;;;;;;7.93;2.63;;;10.60;99.90;;;;;;5048178;28;20083;-69
2023/03/28 11:57:06;;;;;;;7.85;2.70;;;10.50;99.00;;;;;;5042394;28;20072;-69
2023/03/28 11:59:48;;;;;;;5.63;2.92;;;10.30;99.90;;;;;;5028347;28;20033;-70
2023/03/28 12:02:30;;;;;;;6.35;1.98;;;10.40;99.90;;;;;;5027694;28;20048;-69
2023/03/28 12:05:17;;;;;;;6.38;2.50;;;10.60;99.00;;;;;;5032259;28;20555;-69
2023/03/28 12:08:17;;;;;;;6.88;2.67;;;10.50;99.50;;;;;;5048053;28;20049;-70
2023/03/28 12:10:48;;;;;;;4.18;2.70;;;10.40;98.90;;;;;;5031922;28;20056;-68
2023/03/28 12:13:51;;;;;;;6.13;3.00;;;10.30;98.90;;;;;;5048264;28;20041;-70
2023/03/28 12:16:26;;;;;;;3.50;2.28;;;10.40;99.60;;;;;;5027544;28;20041;-69
2023/03/28 12:18:57;;;;;;;4.47;2.90;;;10.40;98.00;;;;;;5031567;28;20533;-72
2023/03/28 12:21:43;;;;;;;7.80;3.35;;;10.10;98.30;;;;;;5029597;28;20041;-72
2023/03/28 12:24:26;;;;;;;5.70;3.20;;;10.00;99.20;;;;;;5027248;28;20502;-70
2023/03/28 12:27:05;;;;;;;5.85;2.85;;;9.80;99.90;;;;;;5029112;28;20042;-70
2023/03/28 12:29:59;;;;;;;5.85;3.10;;;9.70;99.50;;;;;;5011951;28;20375;-72
2023/03/28 12:32:35;;;;;;;10.75;2.72;;;9.60;99.50;;;;;;5028231;28;20072;-69
2023/03/28 12:35:04;;;;;;;5.40;2.83;;;9.60;99.70;;;;;;5028327;28;20076;-70
2023/03/28 12:37:38;;;;;;;6.40;3.20;;;9.50;99.90;;;;;;5027203;28;20041;-69
2023/03/28 12:40:26;;;;;;;6.85;2.78;;;9.30;99.90;;;;;;5027889;28;20046;-69
2023/03/28 12:42:54;;;;;;;5.50;2.47;;;9.20;99.90;;;;;;5043993;28;20521;-70
2023/03/28 12:45:30;;;;;;;4.25;1.90;;;9.20;99.90;;;;;;5047105;28;20052;-70
2023/03/28 12:48:11;;;;;;;7.75;2.58;;;9.20;99.60;;;;;;5047633;28;20041;-72
2023/03/28 12:50:43;;;;;;;7.03;2.55;;;9.00;99.80;;;;;;5047301;28;20052;-68
2023/03/28 12:53:11;;;;;;;7.00;2.97;;;9.00;99.90;;;;;;5049404;28;20037;-71
2023/03/28 12:55:42;;;;;;;7.57;3.40;;;8.90;99.90;;;;;;5031328;28;20375;-71
2023/03/28 12:58:34;;;;;;;7.80;3.03;;;8.90;99.90;;;;;;5047139;28;20532;-70
2023/03/28 13:01:03;;;;;;;3.50;2.22;;;9.00;99.80;;;;;;5043575;28;20049;-70
2023/03/28 13:03:35;;;;;;;6.15;2.42;;;9.00;99.40;;;;;;5047740;28;20045;-71
2023/03/28 13:06:17;;;;;;;7.25;2.72;;;8.90;99.40;;;;;;5048404;28;20044;-73
2023/03/28 13:09:04;;;;;;;4.32;2.50;;;8.90;99.60;;;;;;5047472;28;20130;-70
2023/03/28 13:11:58;;;;;;;8.52;3.28;;;9.00;99.70;;;;;;5048697;28;20499;-71
2023/03/28 13:14:55;;;;;;;7.82;3.47;;;9.10;99.90;;;;;;5047582;28;20041;-71
2023/03/28 13:17:26;;;;;;;7.32;2.60;;;9.10;99.90;;;;;;5050100;28;20045;-71